createdAt,value
2022-10-11T00:00:08.255Z,3.53
2022-10-11T00:02:35.474Z,3.53
2022-10-11T00:05:02.779Z,3.73
2022-10-11T00:07:30.116Z,3.40
2022-10-11T00:09:57.421Z,2.60
2022-10-11T00:12:24.530Z,2.90
2022-10-11T00:14:51.666Z,3.27
2022-10-11T00:17:18.878Z,3.07
2022-10-11T00:19:45.881Z,2.40
2022-10-11T00:22:13.009Z,2.50
2022-10-11T00:24:40.183Z,2.57
2022-10-11T00:27:07.150Z,2.70
2022-10-11T00:29:34.371Z,2.80
2022-10-11T00:32:05.018Z,2.80
2022-10-11T00:34:32.292Z,2.60
2022-10-11T00:36:59.844Z,2.80
2022-10-11T00:39:27.432Z,2.60
2022-10-11T00:41:54.607Z,3.70
2022-10-11T00:44:24.085Z,3.03
2022-10-11T00:46:59.925Z,2.90
2022-10-11T00:49:36.787Z,2.60
2022-10-11T00:52:07.636Z,2.23
2022-10-11T00:54:36.318Z,2.33
2022-10-11T00:57:08.471Z,2.57
2022-10-11T00:59:37.644Z,2.27
2022-10-11T01:02:05.123Z,2.50
2022-10-11T01:04:32.371Z,2.73
2022-10-11T01:06:59.861Z,2.57
2022-10-11T01:09:26.996Z,2.30
2022-10-11T01:11:54.949Z,3.03
2022-10-11T01:14:37.901Z,2.57
2022-10-11T01:17:26.092Z,2.43
2022-10-11T01:20:14.199Z,2.70
2022-10-11T01:23:06.640Z,2.50
2022-10-11T01:25:39.460Z,2.40
2022-10-11T01:28:44.100Z,2.57
2022-10-11T01:31:34.917Z,2.00
2022-10-11T01:34:17.486Z,2.63
2022-10-11T01:37:15.476Z,2.60
2022-10-11T01:39:52.379Z,2.57
2022-10-11T01:42:19.593Z,2.90
2022-10-11T01:44:47.814Z,2.60
2022-10-11T01:47:22.409Z,2.37
2022-10-11T01:50:08.263Z,2.67
2022-10-11T01:52:35.854Z,2.27
2022-10-11T01:55:10.457Z,2.70
2022-10-11T01:57:55.330Z,2.50
2022-10-11T02:00:24.156Z,2.53
2022-10-11T02:03:14.002Z,3.00
2022-10-11T02:05:50.195Z,2.90
2022-10-11T02:08:48.635Z,2.90
2022-10-11T02:11:32.033Z,2.40
2022-10-11T02:14:17.968Z,2.67
2022-10-11T02:16:47.835Z,2.80
2022-10-11T02:19:19.676Z,2.67
2022-10-11T02:21:50.335Z,2.20
2022-10-11T02:26:48.036Z,2.57
2022-10-11T02:29:15.730Z,2.50
2022-10-11T02:31:42.708Z,2.90
2022-10-11T02:34:26.810Z,2.60
2022-10-11T02:37:04.764Z,2.70
2022-10-11T02:39:40.667Z,2.70
2022-10-11T02:42:10.272Z,2.20
2022-10-11T02:44:45.008Z,2.20
2022-10-11T02:47:12.102Z,2.50
2022-10-11T02:49:39.409Z,2.70
2022-10-11T02:52:06.871Z,2.83
2022-10-11T02:54:34.265Z,2.17
2022-10-11T02:57:01.629Z,2.50
2022-10-11T02:59:29.044Z,2.60
2022-10-11T03:01:56.399Z,2.10
2022-10-11T03:04:23.581Z,2.10
2022-10-11T03:06:50.942Z,2.33
2022-10-11T03:09:17.988Z,2.60
2022-10-11T03:11:45.042Z,2.10
2022-10-11T03:14:12.390Z,2.60
2022-10-11T03:16:39.515Z,2.73
2022-10-11T03:19:06.622Z,2.20
2022-10-11T03:21:34.194Z,1.70
2022-10-11T03:24:01.540Z,2.83
2022-10-11T03:26:28.566Z,2.23
2022-10-11T03:28:55.834Z,2.37
2022-10-11T03:31:23.885Z,2.40
2022-10-11T03:33:51.104Z,2.70
2022-10-11T03:36:18.730Z,2.30
2022-10-11T03:38:45.835Z,2.67
2022-10-11T03:41:13.175Z,2.10
2022-10-11T03:43:40.320Z,2.90
2022-10-11T03:46:08.174Z,2.33
2022-10-11T03:48:35.587Z,2.13
2022-10-11T03:51:02.852Z,2.40
2022-10-11T03:53:29.925Z,2.17
2022-10-11T03:55:57.112Z,2.73
2022-10-11T03:58:24.591Z,2.47
2022-10-11T04:00:52.590Z,2.67
2022-10-11T04:03:19.581Z,2.63
2022-10-11T04:05:47.304Z,2.37
2022-10-11T04:08:14.452Z,2.53
2022-10-11T04:10:41.718Z,2.63
2022-10-11T04:13:10.557Z,2.50
2022-10-11T04:15:38.407Z,2.40
2022-10-11T04:18:06.586Z,1.77
2022-10-11T04:20:34.023Z,2.70
2022-10-11T04:23:01.683Z,2.67
2022-10-11T04:25:28.837Z,2.77
2022-10-11T04:27:56.092Z,2.67
2022-10-11T04:30:23.136Z,2.33
2022-10-11T04:32:50.184Z,2.50
2022-10-11T04:35:17.608Z,2.37
2022-10-11T04:37:44.633Z,2.30
2022-10-11T04:40:12.296Z,2.90
2022-10-11T04:42:39.650Z,2.93
2022-10-11T04:45:07.275Z,2.77
2022-10-11T04:47:34.380Z,2.13
2022-10-11T04:50:01.998Z,2.53
2022-10-11T04:52:29.014Z,2.07
2022-10-11T04:54:56.737Z,2.47
2022-10-11T04:57:23.986Z,2.07
2022-10-11T04:59:51.000Z,2.17
2022-10-11T05:02:18.318Z,2.33
2022-10-11T05:04:45.803Z,2.03
2022-10-11T05:07:12.841Z,2.80
2022-10-11T05:09:39.951Z,3.03
2022-10-11T05:12:07.242Z,2.63
2022-10-11T05:14:34.444Z,2.27
2022-10-11T05:17:01.707Z,2.10
2022-10-11T05:19:29.058Z,2.20
2022-10-11T05:21:56.353Z,2.50
2022-10-11T05:24:23.608Z,1.90
2022-10-11T05:26:51.164Z,2.60
2022-10-11T05:29:18.630Z,2.50
2022-10-11T05:31:45.620Z,2.60
2022-10-11T05:34:12.978Z,2.90
2022-10-11T05:36:39.965Z,2.53
2022-10-11T05:39:07.031Z,2.37
2022-10-11T05:41:34.373Z,2.67
2022-10-11T05:44:02.597Z,2.30
2022-10-11T05:46:32.674Z,2.40
2022-10-11T05:49:00.033Z,2.78
2022-10-11T05:51:27.103Z,2.50
2022-10-11T05:53:54.390Z,2.53
2022-10-11T05:56:23.337Z,2.33
2022-10-11T05:58:50.840Z,2.10
2022-10-11T06:01:23.080Z,2.47
2022-10-11T06:03:50.342Z,2.00
2022-10-11T06:06:17.514Z,2.43
2022-10-11T06:08:45.051Z,2.30
2022-10-11T06:11:14.266Z,2.37
2022-10-11T06:13:41.604Z,1.93
2022-10-11T06:16:09.271Z,2.37
2022-10-11T06:18:36.728Z,2.30
2022-10-11T06:21:04.210Z,2.40
2022-10-11T06:23:31.485Z,2.57
2022-10-11T06:25:59.300Z,2.87
2022-10-11T06:28:27.503Z,2.93
2022-10-11T06:30:55.442Z,2.87
2022-10-11T06:33:22.893Z,2.90
2022-10-11T06:35:51.179Z,2.87
2022-10-11T06:38:18.416Z,3.07
2022-10-11T06:40:45.519Z,2.97
2022-10-11T06:43:12.626Z,3.57
2022-10-11T06:45:39.934Z,3.17
2022-10-11T06:48:07.998Z,3.63
2022-10-11T06:50:58.546Z,3.00
2022-10-11T06:53:22.471Z,3.13
2022-10-11T06:55:49.546Z,2.70
2022-10-11T06:58:17.727Z,3.20
2022-10-11T07:00:44.973Z,2.87
2022-10-11T07:03:12.099Z,2.93
2022-10-11T07:05:39.184Z,2.77
2022-10-11T07:08:06.588Z,2.43
2022-10-11T07:10:35.146Z,2.27
2022-10-11T07:13:02.309Z,2.90
2022-10-11T07:15:30.076Z,2.80
2022-10-11T07:17:57.193Z,2.80
2022-10-11T07:20:24.224Z,2.60
2022-10-11T07:22:51.504Z,2.87
2022-10-11T07:25:19.709Z,3.00
2022-10-11T07:27:47.003Z,2.77
2022-10-11T07:30:14.374Z,2.90
2022-10-11T07:32:41.636Z,3.07
2022-10-11T07:35:08.886Z,2.77
2022-10-11T07:37:36.207Z,3.27
2022-10-11T07:40:03.552Z,2.80
2022-10-11T07:42:33.378Z,3.33
2022-10-11T07:45:03.887Z,3.13
2022-10-11T07:47:31.474Z,2.47
2022-10-11T07:49:58.702Z,3.03
2022-10-11T07:52:26.173Z,2.93
2022-10-11T07:54:53.345Z,3.20
2022-10-11T07:57:20.633Z,3.20
2022-10-11T07:59:50.207Z,3.30
2022-10-11T08:02:17.526Z,3.80
2022-10-11T08:04:47.569Z,3.08
2022-10-11T08:07:15.097Z,3.50
2022-10-11T08:09:42.463Z,3.30
2022-10-11T08:12:10.214Z,2.93
2022-10-11T08:14:37.514Z,2.77
2022-10-11T08:17:04.613Z,3.20
2022-10-11T08:19:31.672Z,2.90
2022-10-11T08:21:58.967Z,3.10
2022-10-11T08:24:26.194Z,3.77
2022-10-11T08:26:53.517Z,2.90
2022-10-11T08:29:20.887Z,3.00
2022-10-11T08:31:48.282Z,3.13
2022-10-11T08:34:15.679Z,3.93
2022-10-11T08:36:42.923Z,3.80
2022-10-11T08:39:10.010Z,3.47
2022-10-11T08:41:37.147Z,3.70
2022-10-11T08:44:14.767Z,3.20
2022-10-11T08:46:43.642Z,3.25
2022-10-11T08:49:11.675Z,3.00
2022-10-11T08:51:42.970Z,3.70
2022-10-11T08:54:36.015Z,4.72
2022-10-11T08:57:04.874Z,3.60
2022-10-11T08:59:38.668Z,3.83
2022-10-11T09:02:16.135Z,6.55
2022-10-11T09:04:43.219Z,3.90
2022-10-11T09:07:31.704Z,3.95
2022-10-11T09:09:58.971Z,3.72
2022-10-11T09:12:50.692Z,3.42
2022-10-11T09:15:23.230Z,3.40
2022-10-11T09:18:02.605Z,3.50
2022-10-11T09:20:44.944Z,4.40
2022-10-11T09:23:27.392Z,4.10
2022-10-11T09:26:26.163Z,4.03
2022-10-11T09:29:10.260Z,4.00
2022-10-11T09:31:37.475Z,2.72
2022-10-11T09:34:14.955Z,2.97
2022-10-11T09:36:58.243Z,2.92
2022-10-11T09:39:33.148Z,3.17
2022-10-11T09:42:05.782Z,2.85
2022-10-11T09:44:47.007Z,2.60
2022-10-11T09:47:25.007Z,3.03
2022-10-11T09:50:05.021Z,3.10
2022-10-11T09:52:32.367Z,3.90
2022-10-11T09:55:03.007Z,2.72
2022-10-11T09:57:32.222Z,2.95
2022-10-11T10:00:06.976Z,2.78
2022-10-11T10:02:47.709Z,2.83
2022-10-11T10:05:16.197Z,3.22
2022-10-11T10:08:04.857Z,2.58
2022-10-11T10:10:35.716Z,3.05
2022-10-11T10:13:04.268Z,2.58
2022-10-11T10:15:34.113Z,2.78
2022-10-11T10:18:06.450Z,2.47
2022-10-11T10:20:34.866Z,2.80
2022-10-11T10:23:38.833Z,2.40
2022-10-11T10:26:20.027Z,2.80
2022-10-11T10:29:04.674Z,2.42
2022-10-11T10:32:13.026Z,1.98
2022-10-11T10:34:38.179Z,2.70
2022-10-11T10:37:39.659Z,2.25
2022-10-11T10:40:09.687Z,2.72
2022-10-11T10:42:37.400Z,2.80
2022-10-11T10:45:07.351Z,1.65
2022-10-11T10:48:11.187Z,2.38
2022-10-11T10:50:45.981Z,2.25
2022-10-11T10:53:31.455Z,2.78
2022-10-11T10:56:11.206Z,2.10
2022-10-11T10:58:52.261Z,2.17
2022-10-11T11:02:11.099Z,1.77
2022-10-11T11:05:11.715Z,1.75
2022-10-11T11:08:05.402Z,1.75
2022-10-11T11:11:04.325Z,1.58
2022-10-11T11:13:43.513Z,2.05
2022-10-11T11:16:15.227Z,2.00
2022-10-11T11:19:07.070Z,1.98
2022-10-11T11:21:43.449Z,1.88
2022-10-11T11:24:25.882Z,2.30
2022-10-11T11:27:17.200Z,2.00
2022-10-11T11:29:55.684Z,1.70
2022-10-11T11:32:57.675Z,1.77
2022-10-11T11:35:44.347Z,2.10
2022-10-11T11:38:28.580Z,1.90
2022-10-11T11:41:07.836Z,2.15
2022-10-11T11:43:49.895Z,1.42
2022-10-11T11:46:22.829Z,1.65
2022-10-11T11:48:50.870Z,2.17
2022-10-11T11:51:27.778Z,1.30
2022-10-11T11:54:20.526Z,2.08
2022-10-11T11:57:14.267Z,1.33
2022-10-11T12:00:18.859Z,1.98
2022-10-11T12:03:01.021Z,1.63
2022-10-11T12:05:35.130Z,1.95
2022-10-11T12:08:04.291Z,1.65
2022-10-11T12:10:50.804Z,1.48
2022-10-11T12:13:18.292Z,1.98
2022-10-11T12:16:18.740Z,1.83
2022-10-11T12:18:58.284Z,1.80
2022-10-11T12:21:38.756Z,2.45
2022-10-11T12:24:21.105Z,1.75
2022-10-11T12:26:50.147Z,1.65
2022-10-11T12:29:43.875Z,1.52
2022-10-11T12:32:34.121Z,1.73
2022-10-11T12:35:34.459Z,1.40
2022-10-11T12:40:47.403Z,1.58
2022-10-11T12:43:17.175Z,1.65
2022-10-11T12:45:48.246Z,1.80
2022-10-11T12:48:39.909Z,2.05
2022-10-11T12:51:52.828Z,1.30
2022-10-11T12:54:55.045Z,1.50
2022-10-11T12:57:46.104Z,1.40
2022-10-11T13:00:22.144Z,2.13
2022-10-11T13:02:52.035Z,2.08
2022-10-11T13:05:44.751Z,1.88
2022-10-11T13:08:33.985Z,1.80
2022-10-11T13:11:06.558Z,2.75
2022-10-11T13:13:43.071Z,1.75
2022-10-11T13:16:17.074Z,1.80
2022-10-11T13:18:46.356Z,1.50
2022-10-11T13:21:42.297Z,2.00
2022-10-11T13:24:15.978Z,1.80
2022-10-11T13:26:48.699Z,1.20
2022-10-11T13:29:35.135Z,1.45
2022-10-11T13:32:25.066Z,1.50
2022-10-11T13:35:03.297Z,1.30
2022-10-11T13:37:39.063Z,1.48
2022-10-11T13:40:06.880Z,1.67
2022-10-11T13:42:34.183Z,1.38
2022-10-11T13:45:03.260Z,1.63
2022-10-11T13:47:31.317Z,1.48
2022-10-11T13:50:19.600Z,1.83
2022-10-11T13:53:08.526Z,2.15
2022-10-11T13:56:14.627Z,1.77
2022-10-11T13:58:46.537Z,1.35
2022-10-11T14:01:19.468Z,1.85
2022-10-11T14:03:57.830Z,1.42
2022-10-11T14:06:28.585Z,1.33
2022-10-11T14:08:59.007Z,1.45
2022-10-11T14:11:37.765Z,1.67
2022-10-11T14:14:33.043Z,1.60
2022-10-11T14:17:21.587Z,1.70
2022-10-11T14:20:08.738Z,1.98
2022-10-11T14:22:38.366Z,1.70
2022-10-11T14:25:05.986Z,1.30
2022-10-11T14:27:33.389Z,1.50
2022-10-11T14:30:24.633Z,1.25
2022-10-11T14:32:53.938Z,1.40
2022-10-11T14:35:23.550Z,1.38
2022-10-11T14:37:51.030Z,1.35
2022-10-11T14:40:22.312Z,1.40
2022-10-11T14:42:49.962Z,1.75
2022-10-11T14:45:17.661Z,1.75
2022-10-11T14:47:45.300Z,1.67
2022-10-11T14:50:31.180Z,2.08
2022-10-11T14:52:58.566Z,1.80
2022-10-11T14:55:25.866Z,1.80
2022-10-11T14:57:53.320Z,1.67
2022-10-11T15:00:22.644Z,1.67
2022-10-11T15:02:51.071Z,1.60
2022-10-11T15:05:19.258Z,2.38
2022-10-11T15:07:46.681Z,1.42
2022-10-11T15:10:20.088Z,1.63
2022-10-11T15:12:47.906Z,1.95
2022-10-11T15:15:22.981Z,1.67
2022-10-11T15:17:58.069Z,2.03
2022-10-11T15:20:37.965Z,1.60
2022-10-11T15:23:09.759Z,1.60
2022-10-11T15:25:38.151Z,1.77
2022-10-11T15:28:05.935Z,1.45
2022-10-11T15:30:41.261Z,1.48
2022-10-11T15:33:09.361Z,1.77
2022-10-11T15:35:38.241Z,1.65
2022-10-11T15:38:05.954Z,1.50
2022-10-11T15:40:37.348Z,1.85
2022-10-11T15:43:04.805Z,1.85
2022-10-11T15:45:32.047Z,1.95
2022-10-11T15:48:01.046Z,1.95
2022-10-11T15:50:39.757Z,1.45
2022-10-11T15:53:08.287Z,1.90
2022-10-11T15:55:38.611Z,1.20
2022-10-11T16:00:33.307Z,1.52
2022-10-11T16:03:03.710Z,1.52
2022-10-11T16:07:59.754Z,1.60
2022-10-11T16:10:26.796Z,1.55
2022-10-11T16:12:54.033Z,1.70
2022-10-11T16:15:21.307Z,1.55
2022-10-11T16:17:48.549Z,1.58
2022-10-11T16:20:15.809Z,1.63
2022-10-11T16:22:43.283Z,1.60
2022-10-11T16:25:10.474Z,1.25
2022-10-11T16:27:37.680Z,1.13
2022-10-11T16:30:05.776Z,1.58
2022-10-11T16:32:35.966Z,1.40
2022-10-11T16:35:03.208Z,1.60
2022-10-11T16:37:32.976Z,1.50
2022-10-11T16:40:00.794Z,1.48
2022-10-11T16:42:27.933Z,1.50
2022-10-11T16:44:55.296Z,1.50
2022-10-11T16:47:22.447Z,1.75
2022-10-11T16:49:49.534Z,1.60
2022-10-11T16:52:17.058Z,1.42
2022-10-11T16:54:47.383Z,1.50
2022-10-11T16:57:15.557Z,1.63
2022-10-11T16:59:43.148Z,1.50
2022-10-11T17:02:21.447Z,1.67
2022-10-11T17:04:51.287Z,1.70
2022-10-11T17:07:19.060Z,1.67
2022-10-11T17:09:46.348Z,2.03
2022-10-11T17:12:13.945Z,1.80
2022-10-11T17:14:41.325Z,2.25
2022-10-11T17:17:09.164Z,1.88
2022-10-11T17:19:42.604Z,1.88
2022-10-11T17:22:12.453Z,1.52
2022-10-11T17:24:39.783Z,1.65
2022-10-11T17:27:07.429Z,2.35
2022-10-11T17:29:34.742Z,2.40
2022-10-11T17:32:02.285Z,1.70
2022-10-11T17:34:31.366Z,1.58
2022-10-11T17:36:58.450Z,1.70
2022-10-11T17:39:26.077Z,1.73
2022-10-11T17:41:53.358Z,1.80
2022-10-11T17:44:20.990Z,1.83
2022-10-11T17:46:48.500Z,1.92
2022-10-11T17:49:15.880Z,2.10
2022-10-11T17:56:27.805Z,2.88
2022-10-11T17:58:59.748Z,2.33
2022-10-11T18:01:28.433Z,3.05
2022-10-11T18:03:57.850Z,3.38
2022-10-11T18:06:29.848Z,2.88
2022-10-11T18:08:57.434Z,3.00
2022-10-11T18:11:24.771Z,2.70
2022-10-11T18:13:52.650Z,3.13
2022-10-11T18:16:21.357Z,3.35
2022-10-11T18:18:48.653Z,3.40
2022-10-11T18:21:16.426Z,3.15
2022-10-11T18:23:43.672Z,3.17
2022-10-11T18:26:17.670Z,3.30
2022-10-11T18:28:45.250Z,3.13
2022-10-11T18:31:17.955Z,2.95
2022-10-11T18:33:46.240Z,3.63
2022-10-11T18:36:14.582Z,3.90
2022-10-11T18:38:46.801Z,3.75
2022-10-11T18:41:21.195Z,3.83
2022-10-11T18:43:49.741Z,3.70
2022-10-11T18:46:17.282Z,3.45
2022-10-11T18:48:45.379Z,3.20
2022-10-11T18:51:23.280Z,3.83
2022-10-11T18:53:50.919Z,3.65
2022-10-11T18:56:20.798Z,3.90
2022-10-11T18:58:48.779Z,5.05
2022-10-11T19:01:22.091Z,4.65
2022-10-11T19:03:53.049Z,5.80
2022-10-11T19:06:22.235Z,5.57
2022-10-11T19:08:54.639Z,5.70
2022-10-11T19:11:22.442Z,5.72
2022-10-11T19:13:55.684Z,5.60
2022-10-11T19:16:23.066Z,6.18
2022-10-11T19:18:50.523Z,5.75
2022-10-11T19:21:17.706Z,5.40
2022-10-11T19:23:45.864Z,4.93
2022-10-11T19:26:24.641Z,5.40
2022-10-11T19:28:59.979Z,6.05
2022-10-11T19:31:27.289Z,5.60
2022-10-11T19:33:56.091Z,4.97
2022-10-11T19:36:24.003Z,6.75
2022-10-11T19:38:51.604Z,5.43
2022-10-11T19:41:19.894Z,4.95
2022-10-11T19:43:47.419Z,5.15
2022-10-11T19:46:27.348Z,4.97
2022-10-11T19:49:04.342Z,4.90
2022-10-11T19:51:35.063Z,4.90
2022-10-11T19:54:04.282Z,5.25
2022-10-11T19:56:33.641Z,4.50
2022-10-11T19:59:03.624Z,4.60
2022-10-11T20:01:31.472Z,4.40
2022-10-11T20:04:06.953Z,4.50
2022-10-11T20:06:38.590Z,4.75
2022-10-11T20:11:57.434Z,4.55
2022-10-11T20:14:24.814Z,4.78
2022-10-11T20:16:52.207Z,4.30
2022-10-11T20:19:19.489Z,5.75
2022-10-11T20:21:47.089Z,4.85
2022-10-11T20:24:14.189Z,4.85
2022-10-11T20:26:41.326Z,4.35
2022-10-11T20:29:08.690Z,4.82
2022-10-11T20:31:41.003Z,4.82
2022-10-11T20:34:09.461Z,4.70
2022-10-11T20:36:36.750Z,4.20
2022-10-11T20:39:04.763Z,4.40
2022-10-11T20:41:33.657Z,4.22
2022-10-11T20:44:01.563Z,4.82
2022-10-11T20:46:30.522Z,4.40
2022-10-11T20:49:02.424Z,4.43
2022-10-11T20:51:33.664Z,4.28
2022-10-11T20:54:04.976Z,4.28
2022-10-11T20:56:32.313Z,4.40
2022-10-11T20:59:01.767Z,4.38
2022-10-11T21:01:31.437Z,3.70
2022-10-11T21:04:05.303Z,4.20
2022-10-11T21:06:33.166Z,4.27
2022-10-11T21:09:02.648Z,4.72
2022-10-11T21:11:31.346Z,4.53
2022-10-11T21:14:01.712Z,4.13
2022-10-11T21:16:29.042Z,3.90
2022-10-11T21:18:58.695Z,4.53
2022-10-11T21:21:27.025Z,4.33
2022-10-11T21:23:55.488Z,5.03
2022-10-11T21:26:23.058Z,4.50
2022-10-11T21:28:50.434Z,4.40
2022-10-11T21:31:18.730Z,4.50
2022-10-11T21:33:46.099Z,4.80
2022-10-11T21:36:20.984Z,4.20
2022-10-11T21:38:48.495Z,3.80
2022-10-11T21:41:17.194Z,3.80
2022-10-11T21:43:44.370Z,3.90
2022-10-11T21:46:22.528Z,4.43
2022-10-11T21:48:52.702Z,3.97
2022-10-11T21:51:32.345Z,3.78
2022-10-11T21:54:03.413Z,4.00
2022-10-11T21:56:33.284Z,4.47
2022-10-11T21:59:02.603Z,3.72
2022-10-11T22:01:34.149Z,4.18
2022-10-11T22:06:28.501Z,3.97
2022-10-11T22:08:55.861Z,3.90
2022-10-11T22:11:23.170Z,3.70
2022-10-11T22:13:50.204Z,4.47
2022-10-11T22:16:17.701Z,4.10
2022-10-11T22:18:47.782Z,4.70
2022-10-11T22:21:17.183Z,4.20
2022-10-11T22:23:46.129Z,3.90
2022-10-11T22:26:20.923Z,3.87
2022-10-11T22:28:48.861Z,3.80
2022-10-11T22:31:16.932Z,3.80
2022-10-11T22:36:13.173Z,4.33
2022-10-11T22:38:41.449Z,4.10
2022-10-11T22:41:08.704Z,3.80
2022-10-11T22:43:35.963Z,4.10
2022-10-11T22:46:03.314Z,3.67
2022-10-11T22:48:32.204Z,4.10
2022-10-11T22:50:59.947Z,4.07
2022-10-11T22:53:27.014Z,3.90
2022-10-11T22:55:54.134Z,4.33
2022-10-11T22:58:21.533Z,3.70
2022-10-11T23:00:48.721Z,3.57
2022-10-11T23:03:16.503Z,4.17
2022-10-11T23:05:43.860Z,4.03
2022-10-11T23:08:11.090Z,3.97
2022-10-11T23:10:39.702Z,3.50
2022-10-11T23:13:06.942Z,3.70
2022-10-11T23:15:34.253Z,4.37
2022-10-11T23:18:04.760Z,4.00
2022-10-11T23:20:32.010Z,3.28
2022-10-11T23:22:59.036Z,4.10
2022-10-11T23:25:31.750Z,3.70
2022-10-11T23:28:02.337Z,3.40
2022-10-11T23:33:01.808Z,3.33
2022-10-11T23:35:31.360Z,3.30
2022-10-11T23:37:58.452Z,3.30
2022-10-11T23:40:25.611Z,3.87
2022-10-11T23:42:52.818Z,3.63
2022-10-11T23:45:20.048Z,3.83
2022-10-11T23:47:47.119Z,3.27
2022-10-11T23:50:14.406Z,3.60
2022-10-11T23:52:41.717Z,3.37
2022-10-11T23:55:09.172Z,4.03
2022-10-11T23:57:39.869Z,3.40
